• Join FlightAware (Why Join?)
  • Login
  • US Flag 
09:56AM EDT


 

Airport Tracker/Info


-or-


 

Live Flight TrackerFlight Track Log ✈ N1807N ✈ 22-Apr-2013 ✈ KTTA - KMTN

Flight Track Log - Related Links

Times and Time Zones

All times are in EDT time to prevent confusion due to time zone crossing. See the N1807N flight status page for this flight to view local times or setup timezone preferences in your user account.

Time Position Orientation Groundspeed Altitude Reporting Facility
EDT Latitude Longitude Course Direction KTS MPH feet Rate Location/Type
05:49PM 35.6258 -79.0672 352° North 127 146 2,400  Level Washington Center
05:50PM 35.6653 -79.0742 352° North 135 155 3,400 720 Climbing Washington Center
05:51PM 35.7058 -79.1117 323° Northwest 163 188 4,100 300 Climbing Washington Center
05:52PM 35.7533 -79.1292 343° North 184 212 4,100  Level Washington Center
05:53PM 35.8031 -79.1417 348° North 185 213 4,100 -60 Level Washington Center
05:54PM 35.8472 -79.1231 19° North 179 206 4,000 -60 Descending Washington Center
05:55PM 35.8919 -79.0944 27° Northeast 178 205 4,000  Level Washington Center
05:56PM 35.9347 -79.0656 29° Northeast 176 203 4,000  Level Washington Center
05:57PM 35.9778 -79.0186 41° Northeast 177 204 4,000  Level Washington Center
05:58PM 36.0142 -78.9792 41° Northeast 177 204 4,000  Level Washington Center
05:59PM 36.0528 -78.9422 38° Northeast 175 201 4,000  Level Washington Center
06:00PM 36.0894 -78.9025 41° Northeast 174 200 4,000  Level Washington Center
06:01PM 36.1281 -78.8656 38° Northeast 177 204 4,000  Level Washington Center
06:02PM 36.1625 -78.8258 43° Northeast 174 200 4,000  Level Washington Center
06:03PM 36.2033 -78.7814 41° Northeast 173 199 4,000  Level Washington Center
06:04PM 36.2161 -78.7664 43° Northeast 171 197 4,000  Level Washington Center
06:04PM 36.2356 -78.7492 36° Northeast 174 200 4,000  Level Washington Center
06:05PM 36.2506 -78.7317 43° Northeast 187 215 4,000  Level Washington Center
06:06PM 36.2892 -78.6894 41° Northeast 190 219 4,000  Level Washington Center
06:07PM 36.3194 -78.6519 45° Northeast 172 198 4,000  Level Washington Center
06:08PM 36.3519 -78.6017 51° Northeast 167 192 4,000  Level Washington Center
06:09PM 36.3800 -78.5614 49° Northeast 167 192 4,000  Level Washington Center
06:10PM 36.4147 -78.5111 49° Northeast 167 192 4,000  Level Washington Center
06:11PM 36.4450 -78.4658 50° Northeast 167 192 4,000  Level Washington Center
06:12PM 36.4753 -78.4203 50° Northeast 167 192 4,100  Climbing Washington Center
06:13PM 36.5056 -78.3750 50° Northeast 167 192 4,100  Level Washington Center
06:14PM 36.5358 -78.3294 50° Northeast 167 192 4,100  Level Washington Center
06:15PM 36.5661 -78.2814 52° Northeast 167 192 4,100  Level Washington Center
06:16PM 36.5983 -78.2361 48° Northeast 167 192 4,100  Level Washington Center
06:17PM 36.6286 -78.1931 49° Northeast 167 192 4,100  Level Washington Center
06:18PM 36.6586 -78.1500 49° Northeast 167 192 4,100  Level Washington Center
06:19PM 36.6847 -78.1042 55° Northeast 173 199 4,100  Level Washington Center
06:20PM 36.7169 -78.0586 49° Northeast 173 199 4,100  Level Washington Center
06:21PM 36.7469 -78.0156 49° Northeast 168 193 4,100 -300 Level Washington Center
06:22PM 36.7794 -77.9672 50° Northeast 168 193 3,500 -540 Descending Washington Center
06:23PM 36.8117 -77.9189 50° Northeast 174 200 3,100 -240 Descending Washington Center
06:24PM 36.8436 -77.8783 45° Northeast 169 194 3,100  Level Washington Center
06:25PM 36.8817 -77.8458 34° Northeast 164 189 3,100  Level Washington Center
06:26PM 36.9200 -77.8131 34° Northeast 159 183 3,100 -60 Level Washington Center
06:27PM 36.9581 -77.7778 37° Northeast 159 183 3,000 -60 Descending Washington Center
06:28PM 36.9964 -77.7450 34° Northeast 164 189 3,000  Level Washington Center
06:29PM 37.0344 -77.7097 36° Northeast 164 189 3,000  Level Washington Center
06:30PM 37.0728 -77.6744 36° Northeast 164 189 3,000  Level Washington Center
06:31PM 37.1108 -77.6417 34° Northeast 164 189 3,000  Level Washington Center
06:32PM 37.1489 -77.6061 37° Northeast 164 189 3,000  Level Washington Center
06:33PM 37.1869 -77.5706 37° Northeast 164 189 3,000  Level Washington Center
06:34PM 37.2253 -77.5375 34° Northeast 164 189 3,000  Level Washington Center
06:36PM 37.3000 -77.4667 37° Northeast 168 193 3,000  Level Potomac TRACON
06:37PM 37.3333 -77.4333 38° Northeast 172 198 3,000  Level Potomac TRACON
06:38PM 37.3667 -77.4000 38° Northeast 170 196 3,000  Level Potomac TRACON
06:39PM 37.4167 -77.3667 28° Northeast 174 200 3,000  Level Potomac TRACON
06:40PM 37.4500 -77.3333 38° Northeast 171 197 3,000  Level Potomac TRACON
06:41PM 37.4833 -77.3000 38° Northeast 171 197 3,000  Level Potomac TRACON
06:42PM 37.5333 -77.2667 28° Northeast 166 191 3,000  Level Potomac TRACON
06:43PM 37.5667 -77.2167 50° Northeast 168 193 3,000  Level Potomac TRACON
06:44PM 37.6000 -77.2000 22° Northeast 167 192 3,000  Level Potomac TRACON
06:45PM 37.6333 -77.1500 50° Northeast 173 199 3,000  Level Potomac TRACON
06:46PM 37.6833 -77.1167 28° Northeast 171 197 3,000  Level Potomac TRACON
06:47PM 37.7167 -77.0833 38° Northeast 168 193 3,000  Level Potomac TRACON
06:48PM 37.7500 -77.0500 38° Northeast 171 197 3,000  Level Potomac TRACON
06:49PM 37.7833 -77.0167 38° Northeast 171 197 3,000  Level Potomac TRACON
06:50PM 37.8333 -76.9833 28° Northeast 171 197 3,000  Level Potomac TRACON
06:50PM 37.8589 -76.9489 47° Northeast 171 197 3,000  Level Washington Center
06:51PM 37.8969 -76.9128 37° Northeast 171 197 3,000  Level Washington Center
06:52PM 37.9347 -76.8767 37° Northeast 173 199 3,000  Level Washington Center
06:53PM 37.9747 -76.8431 34° Northeast 186 214 3,000  Level Washington Center
06:54PM 38.0067 -76.7961 49° Northeast 181 208 3,000  Level Washington Center
06:55PM 38.0383 -76.7492 49° Northeast 171 197 3,000 300 Level Washington Center
06:56PM 38.0678 -76.7100 46° Northeast 161 185 3,600 960 Climbing Washington Center
06:57PM 38.0953 -76.6708 48° Northeast 156 180 5,000 600 Climbing Washington Center
06:58PM 38.1269 -76.6292 46° Northeast 156 180 4,800  Descending Washington Center
06:59PM 38.1567 -76.5819 51° Northeast 156 180 5,100 60 Climbing Washington Center
07:00PM 38.1925 -76.5350 46° Northeast 168 193 5,000 -60 Descending Washington Center
07:01PM 38.2261 -76.4850 49° Northeast 173 199 5,000  Level Washington Center
07:02PM 38.2642 -76.4353 46° Northeast 178 205 5,000  Level Washington Center
07:03PM 38.3019 -76.3908 43° Northeast 183 211 5,000  Level Washington Center
07:04PM 38.3458 -76.3806 10° North 177 204 5,000  Level Washington Center
07:05PM 38.4000 -76.3706 North 177 204 5,000  Level Washington Center
07:06PM 38.4503 -76.3578 11° North 187 215 5,000  Level Washington Center
07:07PM 38.5003 -76.3397 16° North 187 215 5,000  Level Washington Center
07:08PM 38.5525 -76.3269 11° North 182 209 5,000  Level Washington Center
07:09PM 38.6028 -76.3117 13° North 182 209 5,000  Level Washington Center
07:11PM 38.7000 -76.2833 13° North 188 216 5,100 -60 Climbing Potomac TRACON
07:12PM 38.7500 -76.2833 360° North 195 224 4,900 -540 Descending Potomac TRACON
07:13PM 38.8167 -76.3000 349° North 204 235 4,100 -840 Descending Potomac TRACON
07:14PM 38.8667 -76.3167 345° North 204 235 3,300 -540 Descending Potomac TRACON
07:15PM 38.9167 -76.3167 360° North 194 223 3,100 -120 Descending Potomac TRACON
07:16PM 38.9667 -76.3333 345° North 173 199 3,100  Level Potomac TRACON
07:17PM 39.0167 -76.3500 345° North 171 197 3,100  Level Potomac TRACON
07:18PM 39.0667 -76.3500 360° North 174 200 3,100  Level Potomac TRACON
07:19PM 39.1167 -76.3667 346° North 172 198 3,100  Level Potomac TRACON
07:20PM 39.1500 -76.3833 339° North 163 188 3,100  Level Potomac TRACON
07:21PM 39.2000 -76.3833 360° North 154 177 3,100  Level Potomac TRACON
07:22PM 39.2333 -76.4000 339° North 160 184 3,100  Level Potomac TRACON
07:23PM 39.2667 -76.4500 311° West 163 188 3,100 -300 Level Potomac TRACON
07:24PM 39.2833 -76.4833 303° West 137 158 2,500 -660 Descending Potomac TRACON
07:25PM 39.3167 -76.4833 360° North 120 138 1,800 -660 Descending Potomac TRACON
07:26PM 39.3500 -76.4667 21° North 117 135 1,200 -780 Descending Potomac TRACON
07:27PM 39.3333 -76.4333 123° Southeast 101 116 300 -900 Descending Potomac TRACON
07:29PM 39.3257 -76.4138 123° Southeast  Level Estimated
07:36PM 39.3257 -76.4138 123° Southeast  Level Estimated
07:37PM 39.3257 -76.4138 123° Southeast  Level Estimated
07:38PM 39.3257 -76.4138 123° Southeast  Level Estimated
07:39PM 39.3257 -76.4138 123° Southeast  Level Estimated
07:40PM 39.3257 -76.4138 123° Southeast  Level Estimated
07:41PM 39.3257 -76.4138 123° Southeast  Level Estimated
07:42PM 39.3257 -76.4138 123° Southeast  Level Estimated
07:43PM 39.3257 -76.4138 123° Southeast  Level Estimated
07:44PM 39.3257 -76.4138 123° Southeast  Level Estimated